Time;durP1;ratioP1;P1;durP2;ratioP2;P2;SDS_P1;SDS_P2;PMS_P1;PMS_P2;Temp;Humidity;BMP_temperature;BMP_pressure;BME280_temperature;BME280_humidity;BME280_pressure;Samples;Min_cycle;Max_cycle;Signal;HPM_P1;HPM_P2
2022/05/03 17:45:57;;;;;;;24.90;13.65;;;13.80;63.30;;;12.17;82.45;101627.09;176497;27;20725;-67
2022/05/03 17:46:03;;;;;;;25.95;15.33;;;13.80;62.80;;;12.17;82.59;101626.25;174618;28;1799;-66
2022/05/03 17:46:13;;;;;;;29.27;16.30;;;13.80;62.50;;;12.15;82.82;101633.31;174511;28;1019;-67
2022/05/03 17:46:20;;;;;;;29.35;17.64;;;13.70;62.30;;;12.14;82.07;101626.38;174574;28;1189;-67
2022/05/03 17:46:28;;;;;;;29.88;18.70;;;13.80;62.40;;;12.13;82.98;101633.38;174565;28;973;-68
2022/05/03 17:46:33;;;;;;;34.93;20.37;;;13.70;62.70;;;12.10;82.65;101629.09;174652;28;886;-67
2022/05/03 17:46:40;;;;;;;33.67;20.50;;;13.70;63.00;;;12.12;81.36;101628.19;174450;28;1136;-67
2022/05/03 17:46:47;;;;;;;33.82;20.20;;;13.80;63.20;;;12.12;82.72;101622.94;174602;28;903;-65
2022/05/03 17:46:53;;;;;;;33.56;20.02;;;13.70;63.50;;;12.13;79.53;101635.13;174596;28;918;-66
2022/05/03 17:46:59;;;;;;;31.35;19.77;;;13.80;63.80;;;12.13;78.10;101624.66;174586;28;990;-65
2022/05/03 17:47:05;;;;;;;29.85;19.73;;;13.70;64.00;;;12.15;78.19;101628.06;174665;28;914;-67
2022/05/03 17:47:11;;;;;;;31.20;20.00;;;13.80;64.30;;;12.16;79.48;101630.66;175205;28;1113;-68
2022/05/03 17:47:17;;;;;;;31.83;20.58;;;13.80;64.50;;;12.18;80.74;101630.59;175289;28;961;-66
2022/05/03 17:47:22;;;;;;;32.08;20.70;;;13.80;64.70;;;12.19;80.24;101624.44;175316;28;1243;-67
2022/05/03 17:47:28;;;;;;;31.42;20.80;;;13.70;65.00;;;12.21;78.10;101630.44;175305;28;1007;-68
2022/05/03 17:47:34;;;;;;;30.37;20.90;;;13.70;65.10;;;12.22;77.86;101629.56;175345;28;847;-68
2022/05/03 17:47:40;;;;;;;30.27;21.15;;;13.80;65.30;;;12.24;77.99;101627.72;175288;28;874;-68
2022/05/03 17:47:45;;;;;;;29.42;21.33;;;13.80;65.50;;;12.25;77.70;101624.19;175306;28;915;-68
2022/05/03 17:47:51;;;;;;;29.37;21.37;;;13.80;65.60;;;12.26;77.99;101623.31;175327;28;934;-68
2022/05/03 17:47:59;;;;;;;29.65;21.55;;;13.80;65.70;;;12.28;78.01;101628.50;175275;28;764;-67
2022/05/03 17:48:05;;;;;;;30.78;21.93;;;13.80;65.90;;;12.29;77.64;101631.06;175339;28;979;-66
2022/05/03 17:48:11;;;;;;;30.08;22.08;;;13.80;66.10;;;12.30;78.93;101631.88;175966;28;1081;-66
2022/05/03 17:48:17;;;;;;;30.03;22.13;;;13.80;66.20;;;12.30;78.16;101627.50;175991;28;898;-68
2022/05/03 17:48:22;;;;;;;29.92;22.38;;;13.80;66.30;;;12.32;78.49;101628.28;176028;28;975;-67
2022/05/03 17:48:28;;;;;;;30.50;22.47;;;13.80;66.50;;;12.33;78.57;101630.03;175994;28;831;-66
2022/05/03 17:48:36;;;;;;;30.80;22.48;;;13.80;66.60;;;12.33;79.29;101632.66;176018;28;863;-68
2022/05/03 17:48:43;;;;;;;31.67;22.23;;;13.80;66.70;;;12.34;78.59;101629.09;176016;28;965;-67
2022/05/03 17:48:49;;;;;;;32.18;22.50;;;13.80;66.80;;;12.35;78.24;101629.94;175962;28;933;-66
2022/05/03 17:48:55;;;;;;;31.82;21.98;;;13.90;66.90;;;12.35;80.02;101630.81;176004;28;906;-65
2022/05/03 17:49:01;;;;;;;32.03;22.08;;;13.90;67.00;;;12.35;80.72;101628.19;175813;28;1365;-66
2022/05/03 17:49:08;;;;;;;32.93;22.43;;;13.90;67.00;;;12.35;79.31;101627.31;175788;28;1731;-67
2022/05/03 17:49:14;;;;;;;32.10;22.17;;;13.90;67.10;;;12.35;79.92;101628.19;175352;28;1049;-68
2022/05/03 17:49:37;;;;;;;33.19;22.06;;;13.90;67.20;;;12.32;82.01;101630.91;175186;28;1813;-66
2022/05/03 17:49:43;;;;;;;33.10;21.80;;;14.00;67.50;;;12.28;81.45;101629.31;175282;28;961;-66
2022/05/03 17:49:49;;;;;;;31.30;21.53;;;14.00;67.50;;;12.30;80.50;101627.50;175317;28;899;-66
2022/05/03 17:49:55;;;;;;;29.60;21.80;;;14.00;67.50;;;12.30;81.47;101631.88;175316;28;965;-66
2022/05/03 17:50:03;;;;;;;28.33;21.58;;;14.00;67.50;;;12.31;80.64;101633.59;175265;28;1033;-66
2022/05/03 17:50:09;;;;;;;28.00;21.76;;;14.00;67.60;;;12.34;80.30;101634.34;175360;28;915;-66
2022/05/03 17:50:15;;;;;;;28.83;22.23;;;14.00;67.60;;;12.33;80.03;101632.66;175326;28;989;-66
2022/05/03 17:50:20;;;;;;;29.45;22.33;;;14.00;67.60;;;12.32;80.62;101633.53;175346;28;1073;-66
2022/05/03 17:50:27;;;;;;;29.63;22.25;;;14.10;67.60;;;12.34;80.61;101634.34;175342;28;977;-67
2022/05/03 17:50:33;;;;;;;29.58;22.38;;;14.10;67.60;;;12.36;79.93;101629.88;174464;28;1094;-67
2022/05/03 17:50:39;;;;;;;29.05;21.92;;;14.10;67.60;;;12.38;79.64;101629.00;174604;28;906;-66
2022/05/03 17:50:45;;;;;;;29.25;21.73;;;14.10;67.60;;;12.39;80.08;101630.69;174563;28;930;-65
2022/05/03 17:50:50;;;;;;;29.50;21.97;;;14.10;67.60;;;12.36;80.73;101637.75;174578;28;1025;-65
2022/05/03 17:50:56;;;;;;;30.05;21.83;;;14.20;67.60;;;12.36;79.97;101631.66;174463;28;1101;-66
2022/05/03 17:51:05;;;;;;;30.50;21.90;;;14.10;67.60;;;12.39;80.28;101633.31;174610;28;856;-65
2022/05/03 17:51:10;;;;;;;32.82;22.20;;;14.20;67.50;;;12.36;81.01;101632.50;174564;28;982;-66
2022/05/03 17:51:16;;;;;;;33.17;22.08;;;14.20;67.50;;;12.36;80.32;101635.13;174541;28;910;-67
2022/05/03 17:53:52;;;;;;;32.25;21.70;;;14.30;67.50;;;12.40;80.19;101627.16;174564;28;1056;-67
2022/05/03 17:53:54;;;;;;;28.38;20.90;;;14.60;66.60;;;12.53;79.38;101636.28;174598;28;1206;-66
2022/05/03 17:54:01;;;;;;;29.67;21.66;;;14.70;66.30;;;12.54;79.60;101634.50;175238;28;1075;-66
2022/05/03 17:54:06;;;;;;;30.24;21.94;;;14.80;66.20;;;12.54;79.30;101635.34;175354;28;934;-66
2022/05/03 17:54:13;;;;;;;30.47;21.83;;;14.80;66.10;;;12.55;79.73;101637.06;175299;28;973;-67
2022/05/03 17:54:19;;;;;;;29.76;22.10;;;14.80;66.10;;;12.57;80.00;101631.75;175336;28;942;-66
2022/05/03 17:54:24;;;;;;;30.40;22.15;;;14.80;66.00;;;12.58;79.32;101634.31;175308;28;1041;-66
2022/05/03 17:54:30;;;;;;;30.17;21.80;;;14.90;66.00;;;12.57;79.22;101635.25;175339;28;1138;-67
2022/05/03 17:54:37;;;;;;;29.65;21.98;;;14.90;65.90;;;12.56;79.40;101632.69;175381;28;1045;-67
2022/05/03 17:54:44;;;;;;;29.66;21.92;;;14.90;65.80;;;12.52;79.80;101636.31;175332;28;1238;-66
2022/05/03 17:54:52;;;;;;;29.37;21.53;;;15.00;65.80;;;12.54;79.46;101634.50;175367;28;989;-66
2022/05/03 17:54:58;;;;;;;28.26;21.38;;;15.00;65.60;;;12.49;79.56;101634.69;175305;28;911;-66
2022/05/03 17:55:04;;;;;;;28.98;21.30;;;15.00;65.50;;;12.49;79.99;101637.31;174527;28;859;-66
2022/05/03 17:55:11;;;;;;;29.23;21.30;;;15.00;65.50;;;12.51;80.00;101635.47;174619;28;923;-67
2022/05/03 17:55:17;;;;;;;29.37;21.30;;;15.00;65.40;;;12.53;79.83;101633.66;174577;28;989;-67
2022/05/03 17:55:23;;;;;;;30.20;21.67;;;15.10;65.30;;;12.54;79.75;101629.25;174427;28;1032;-66
2022/05/03 17:55:28;;;;;;;29.85;21.75;;;15.10;65.20;;;12.56;79.41;101636.13;174466;28;1318;-66
2022/05/03 17:55:34;;;;;;;29.48;21.67;;;15.10;65.20;;;12.54;79.86;101632.72;174550;28;1163;-67
2022/05/03 17:55:40;;;;;;;28.97;21.43;;;15.10;65.10;;;12.56;79.30;101633.50;174628;28;1096;-67
2022/05/03 17:55:46;;;;;;;30.20;21.40;;;15.20;65.00;;;12.56;79.40;101628.28;174520;28;1938;-67
2022/05/03 17:55:52;;;;;;;31.15;21.23;;;15.20;65.00;;;12.57;79.37;101632.63;174552;28;950;-67
2022/05/03 17:55:58;;;;;;;32.15;21.45;;;15.20;64.90;;;12.58;79.66;101631.69;174563;28;934;-66
2022/05/03 17:56:04;;;;;;;32.03;21.67;;;15.20;64.80;;;12.59;79.90;101641.25;174539;28;859;-66
2022/05/03 17:56:10;;;;;;;33.27;21.90;;;15.30;64.80;;;12.59;80.05;101633.41;174655;28;935;-67
2022/05/03 17:56:16;;;;;;;33.35;21.88;;;15.30;64.70;;;12.60;79.50;101634.28;174585;28;949;-66
2022/05/03 17:56:27;;;;;;;31.67;21.88;;;15.30;64.60;;;12.63;79.53;101628.91;174604;28;953;-67
2022/05/03 17:56:33;;;;;;;32.50;21.54;;;15.30;64.60;;;12.63;79.84;101634.16;174590;28;1257;-66
2022/05/03 17:56:39;;;;;;;31.90;21.10;;;15.40;64.50;;;12.62;79.53;101633.28;174619;28;915;-66
2022/05/03 17:56:46;;;;;;;31.23;21.17;;;15.40;64.40;;;12.64;79.97;101635.84;174579;28;1013;-66
2022/05/03 17:56:51;;;;;;;32.50;21.42;;;15.40;64.40;;;12.64;79.65;101635.00;174622;28;915;-66
2022/05/03 17:56:57;;;;;;;30.27;21.25;;;15.50;64.30;;;12.62;79.90;101638.53;174568;28;1045;-66
2022/05/03 17:57:04;;;;;;;30.43;21.57;;;15.50;64.20;;;12.60;80.13;101635.09;174484;28;1529;-67
2022/05/03 17:57:09;;;;;;;32.20;21.87;;;15.50;64.10;;;12.60;79.49;101629.88;174612;28;998;-67
2022/05/03 17:57:16;;;;;;;31.40;21.75;;;15.50;64.10;;;12.55;80.11;101631.81;174536;28;868;-68
2022/05/03 17:57:24;;;;;;;30.96;21.56;;;15.50;64.00;;;12.57;79.62;101630.00;174573;28;891;-66
2022/05/03 17:57:29;;;;;;;31.44;21.70;;;15.50;63.90;;;12.57;79.93;101630.00;174457;28;1370;-66
2022/05/03 17:57:35;;;;;;;30.73;21.67;;;15.60;63.80;;;12.60;79.56;101636.88;174570;28;895;-67
2022/05/03 17:57:41;;;;;;;29.70;21.63;;;15.60;63.70;;;12.61;80.29;101631.59;174583;28;1085;-66
2022/05/03 17:57:46;;;;;;;32.20;21.80;;;15.70;63.70;;;12.63;79.95;101634.16;174580;28;931;-67
2022/05/03 17:57:52;;;;;;;31.25;21.58;;;15.70;63.60;;;12.63;79.33;101634.16;174583;28;1107;-67
2022/05/03 17:57:58;;;;;;;31.83;21.57;;;15.70;63.60;;;12.65;79.29;101636.69;174616;28;847;-67
2022/05/03 17:58:04;;;;;;;32.55;21.58;;;15.70;63.50;;;12.65;79.31;101632.31;174601;28;906;-66
2022/05/03 17:58:10;;;;;;;31.55;21.55;;;15.70;63.40;;;12.66;79.98;101635.81;174636;28;1124;-66
2022/05/03 17:58:15;;;;;;;29.00;21.40;;;15.80;63.40;;;12.66;79.92;101627.94;174444;28;1762;-67
2022/05/03 17:58:21;;;;;;;29.63;21.48;;;15.80;63.30;;;12.64;79.61;101630.63;174498;28;1740;-66
2022/05/03 17:58:27;;;;;;;29.23;20.97;;;15.80;63.20;;;12.66;79.68;101633.19;174580;28;930;-67
2022/05/03 17:58:33;;;;;;;27.83;20.70;;;15.80;63.10;;;12.67;79.92;101629.63;174614;28;1034;-66
2022/05/03 17:58:41;;;;;;;28.40;20.65;;;15.80;63.10;;;12.65;80.27;101632.31;174539;28;1064;-65
2022/05/03 17:58:47;;;;;;;28.63;20.40;;;15.90;63.00;;;12.58;80.50;101638.69;174540;28;1021;-66
2022/05/03 17:58:55;;;;;;;28.45;20.58;;;15.90;62.90;;;12.54;79.40;101635.34;174594;28;925;-67
2022/05/03 17:59:01;;;;;;;28.67;21.03;;;15.90;62.90;;;12.53;80.24;101635.41;174438;28;995;-67
2022/05/03 17:59:12;;;;;;;29.03;20.93;;;16.00;62.70;;;12.55;80.04;101629.19;174940;28;1217;-67
2022/05/03 17:59:18;;;;;;;28.26;20.91;;;16.00;62.70;;;12.45;80.23;101630.44;175270;28;1258;-67
2022/05/03 17:59:24;;;;;;;28.16;20.92;;;16.00;62.50;;;12.41;79.88;101634.09;175296;28;926;-67
2022/05/03 17:59:31;;;;;;;28.70;20.73;;;16.00;62.40;;;12.44;79.89;101631.38;175214;28;835;-65
2022/05/03 17:59:37;;;;;;;29.42;20.95;;;16.10;62.40;;;12.45;80.55;101635.69;175309;28;1204;-67
2022/05/03 17:59:46;;;;;;;30.38;21.10;;;16.00;62.20;;;12.43;80.68;101638.38;174531;28;1032;-67
2022/05/03 17:59:52;;;;;;;30.70;20.89;;;16.00;62.20;;;12.41;80.91;101632.34;174593;28;1165;-66
2022/05/03 17:59:57;;;;;;;31.37;21.00;;;16.10;62.10;;;12.41;80.60;101634.09;174613;28;843;-66
2022/05/03 18:00:06;;;;;;;30.85;21.08;;;16.20;62.00;;;12.35;80.55;101633.41;174560;28;978;-66
2022/05/03 18:00:12;;;;;;;30.12;21.00;;;16.20;62.00;;;12.34;80.42;101631.72;174575;28;981;-68
2022/05/03 18:00:19;;;;;;;29.73;21.03;;;16.20;61.90;;;12.38;80.53;101629.00;174591;28;946;-66
2022/05/03 18:00:25;;;;;;;28.98;20.88;;;16.20;61.80;;;12.42;80.84;101635.81;174581;28;1085;-67
2022/05/03 18:00:31;;;;;;;28.67;20.55;;;16.30;61.80;;;12.44;80.38;101636.59;174591;28;918;-66
2022/05/03 18:00:36;;;;;;;28.45;20.50;;;16.30;61.70;;;12.44;80.56;101633.97;174612;28;1097;-66
2022/05/03 18:00:42;;;;;;;28.38;20.58;;;16.30;61.60;;;12.44;80.48;101632.22;174583;28;1053;-67
2022/05/03 18:00:48;;;;;;;28.17;20.27;;;16.30;61.60;;;12.41;79.91;101634.09;174627;28;851;-67
2022/05/03 18:00:54;;;;;;;29.03;20.53;;;16.30;61.50;;;12.35;80.50;101625.56;174571;28;1037;-66
2022/05/03 18:01:02;;;;;;;29.67;20.73;;;16.30;61.40;;;12.32;80.26;101635.31;174584;28;1098;-66
2022/05/03 18:01:10;;;;;;;30.94;20.91;;;16.40;61.30;;;12.38;81.01;101639.47;174611;28;1077;-67
2022/05/03 18:01:18;;;;;;;32.43;21.17;;;16.40;61.20;;;12.30;80.21;101631.88;173795;28;1240;-66
2022/05/03 18:01:24;;;;;;;30.88;21.04;;;16.40;61.10;;;12.33;80.48;101637.00;173069;28;1189;-66
2022/05/03 18:01:30;;;;;;;29.66;20.68;;;16.40;61.00;;;12.28;80.79;101631.94;173200;28;1014;-65
2022/05/03 18:01:41;;;;;;;27.75;20.20;;;16.40;60.90;;;12.24;81.34;101632.97;173233;28;1078;-66
2022/05/03 18:01:47;;;;;;;26.41;20.11;;;16.50;60.80;;;12.25;81.02;101629.44;173893;28;1156;-66
2022/05/03 18:01:54;;;;;;;26.43;19.93;;;16.50;60.70;;;12.27;81.00;101638.09;173956;28;883;-66
2022/05/03 18:02:00;;;;;;;26.63;20.17;;;16.50;60.60;;;12.30;80.25;101637.13;173931;28;907;-64
2022/05/03 18:02:05;;;;;;;27.37;20.47;;;16.50;60.60;;;12.34;80.87;101634.34;173797;28;1037;-66
2022/05/03 18:02:11;;;;;;;28.33;20.70;;;16.60;60.50;;;12.38;80.47;101636.84;173895;28;903;-67
2022/05/03 18:02:17;;;;;;;28.20;20.77;;;16.50;60.40;;;12.41;80.51;101634.09;173059;28;719;-66
2022/05/03 18:02:23;;;;;;;28.02;20.80;;;16.60;60.30;;;12.44;80.74;101628.75;173181;28;1174;-67
2022/05/03 18:02:28;;;;;;;29.33;21.00;;;16.60;60.30;;;12.47;80.47;101629.50;173228;28;903;-65
2022/05/03 18:02:34;;;;;;;29.83;20.83;;;16.70;60.30;;;12.48;80.14;101636.44;173054;28;1026;-68
2022/05/03 18:02:41;;;;;;;28.67;20.27;;;16.60;60.20;;;12.47;79.95;101634.75;173237;28;1093;-66
2022/05/03 18:02:47;;;;;;;28.26;20.12;;;16.70;60.10;;;12.44;80.83;101633.97;173224;28;940;-66
2022/05/03 18:02:52;;;;;;;28.77;20.17;;;16.70;60.10;;;12.39;80.86;101634.19;173209;28;841;-66
2022/05/03 18:02:58;;;;;;;28.35;20.17;;;16.70;60.00;;;12.38;80.30;101631.63;173231;28;772;-66
2022/05/03 18:03:07;;;;;;;27.48;20.27;;;16.70;60.00;;;12.38;80.40;101634.22;173142;28;987;-66
2022/05/03 18:03:13;;;;;;;27.36;20.41;;;16.70;59.90;;;12.34;81.03;101636.97;173223;28;1083;-66
2022/05/03 18:03:21;;;;;;;27.23;20.30;;;16.80;59.80;;;12.41;80.79;101632.34;173920;28;899;-66
2022/05/03 18:03:26;;;;;;;26.60;20.13;;;16.80;59.80;;;12.45;80.55;101631.31;173848;28;1275;-66
2022/05/03 18:03:32;;;;;;;27.07;20.07;;;16.80;59.70;;;12.45;80.12;101630.44;173860;28;1022;-66
2022/05/03 18:03:38;;;;;;;28.48;19.92;;;16.80;59.60;;;12.41;80.57;101628.84;173917;28;1069;-66
2022/05/03 18:03:44;;;;;;;28.38;19.98;;;16.80;59.60;;;12.33;79.99;101631.78;173910;28;985;-66
2022/05/03 18:03:52;;;;;;;28.83;20.20;;;16.80;59.50;;;12.26;79.94;101627.69;173927;28;867;-66
2022/05/03 18:03:59;;;;;;;28.80;20.17;;;16.80;59.40;;;12.21;80.29;101631.31;173890;28;969;-66
2022/05/03 18:04:05;;;;;;;27.47;20.40;;;16.90;59.40;;;12.16;80.49;101630.66;173433;28;898;-66
2022/05/03 18:04:11;;;;;;;27.63;20.70;;;16.90;59.30;;;12.17;81.53;101631.47;173234;28;1001;-67
2022/05/03 18:04:17;;;;;;;28.02;20.85;;;16.90;59.20;;;12.22;80.86;101634.81;173798;28;923;-67
2022/05/03 18:04:22;;;;;;;27.98;20.73;;;16.90;59.20;;;12.26;81.61;101633.78;173804;28;1014;-65
2022/05/03 18:04:28;;;;;;;28.13;20.83;;;16.90;59.10;;;12.28;81.07;101629.31;173834;28;1045;-66
2022/05/03 18:04:34;;;;;;;28.13;20.92;;;16.90;59.00;;;12.30;80.90;101632.75;174432;28;1038;-66
2022/05/03 18:04:39;;;;;;;27.70;20.63;;;17.00;59.00;;;12.29;80.90;101633.66;174660;28;1092;-67
2022/05/03 18:04:45;;;;;;;28.67;20.63;;;17.00;59.00;;;12.33;80.92;101632.66;174568;28;958;-67
2022/05/03 18:04:51;;;;;;;29.17;20.60;;;17.00;58.90;;;12.35;80.81;101627.31;174567;28;1230;-67
2022/05/03 18:04:56;;;;;;;29.23;20.58;;;17.00;58.90;;;12.36;80.58;101632.50;174596;28;855;-67
2022/05/03 18:05:02;;;;;;;28.35;20.13;;;17.00;58.80;;;12.33;80.93;101632.66;174887;28;1017;-66
2022/05/03 18:05:13;;;;;;;28.73;20.17;;;17.00;58.80;;;12.36;80.96;101632.50;174599;28;1089;-66
2022/05/03 18:05:19;;;;;;;26.58;19.81;;;17.10;58.70;;;12.40;79.93;101628.03;174574;28;1249;-66
2022/05/03 18:05:25;;;;;;;24.50;19.65;;;17.10;58.60;;;12.45;80.55;101630.44;174624;28;836;-66
2022/05/03 18:05:31;;;;;;;25.13;19.77;;;17.10;58.60;;;12.46;80.44;101633.00;174506;28;954;-66
2022/05/03 18:05:40;;;;;;;26.50;20.08;;;17.10;58.50;;;12.45;80.16;101630.44;174603;28;863;-66
2022/05/03 18:05:45;;;;;;;27.51;20.36;;;17.10;58.50;;;12.34;79.76;101623.88;175185;28;1403;-66
2022/05/03 18:05:54;;;;;;;28.77;20.10;;;17.10;58.40;;;12.27;80.00;101630.25;175287;28;863;-66
2022/05/03 18:06:03;;;;;;;29.60;20.40;;;17.10;58.40;;;12.23;80.18;101631.25;175262;28;1054;-66
2022/05/03 18:06:12;;;;;;;28.89;20.21;;;17.20;58.30;;;12.20;80.42;101628.75;175293;28;1066;-67
2022/05/03 18:06:21;;;;;;;28.71;20.23;;;17.20;58.20;;;12.21;80.63;101628.69;175260;28;1081;-66
2022/05/03 18:06:27;;;;;;;29.04;20.39;;;17.20;58.10;;;12.28;80.44;101624.09;175627;28;1162;-67
2022/05/03 18:06:59;;;;;;;30.60;20.60;;;17.20;57.90;;;12.32;80.59;101628.28;175991;28;1216;-66
2022/05/03 18:06:59;;;;;;;29.40;20.13;;;17.20;57.90;;;12.25;79.67;101624.19;175867;28;1242;-67
2022/05/03 18:07:05;;;;;;;28.10;19.90;;;17.30;57.70;;;12.26;80.10;101625.94;176002;28;903;-66
2022/05/03 18:07:13;;;;;;;27.60;19.88;;;17.30;57.60;;;12.31;80.41;101618.75;176046;28;993;-67
2022/05/03 18:07:20;;;;;;;27.22;19.74;;;17.30;57.60;;;12.39;79.97;101630.69;175994;28;1104;-66
2022/05/03 18:07:26;;;;;;;27.14;19.80;;;17.30;57.50;;;12.42;79.65;101631.41;175996;28;1041;-67
2022/05/03 18:07:32;;;;;;;27.60;19.80;;;17.30;57.40;;;12.42;80.09;101626.19;175358;28;910;-67
2022/05/03 18:07:37;;;;;;;28.02;20.00;;;17.40;57.30;;;12.47;79.75;101626.03;175305;28;930;-66
2022/05/03 18:07:45;;;;;;;27.77;20.27;;;17.30;57.30;;;12.49;80.14;101626.84;175763;28;1077;-66
2022/05/03 18:07:52;;;;;;;27.02;20.20;;;17.30;57.30;;;12.52;79.99;101629.31;175313;28;996;-67
2022/05/03 18:07:58;;;;;;;27.93;20.23;;;17.40;57.20;;;12.54;79.89;101630.13;175364;28;945;-67
2022/05/03 18:08:04;;;;;;;29.20;20.50;;;17.40;57.20;;;12.56;79.80;101628.28;175351;28;894;-66
2022/05/03 18:08:10;;;;;;;31.00;20.20;;;17.40;57.10;;;12.55;79.07;101621.34;175384;28;1082;-66
2022/05/03 18:08:16;;;;;;;32.08;20.40;;;17.40;57.10;;;12.50;79.69;101623.28;175326;28;863;-67
2022/05/03 18:08:21;;;;;;;32.13;20.47;;;17.50;57.10;;;12.53;79.81;101625.81;175319;28;937;-66
2022/05/03 18:08:28;;;;;;;30.80;20.27;;;17.50;57.10;;;12.56;79.73;101627.44;175291;28;843;-67
2022/05/03 18:08:33;;;;;;;29.05;19.83;;;17.50;57.00;;;12.57;79.36;101631.75;175196;28;1049;-66
2022/05/03 18:08:41;;;;;;;26.60;19.65;;;17.50;57.00;;;12.56;79.48;101625.66;175305;28;943;-66
2022/05/03 18:08:49;;;;;;;25.33;19.43;;;17.50;56.90;;;12.51;79.53;101627.63;175288;28;1335;-67
2022/05/03 18:09:02;;;;;;;26.27;19.47;;;17.50;56.80;;;12.50;79.67;101625.91;175305;28;1206;-67
2022/05/03 18:09:07;;;;;;;27.40;19.67;;;17.50;56.80;;;12.55;79.57;101621.34;174506;28;1544;-67
2022/05/03 18:09:13;;;;;;;27.35;19.42;;;17.60;56.80;;;12.56;79.48;101628.28;174603;28;1041;-66
2022/05/03 18:09:18;;;;;;;27.53;19.27;;;17.60;56.80;;;12.59;79.22;101628.16;174566;28;1088;-66
2022/05/03 18:09:24;;;;;;;27.40;19.15;;;17.60;56.70;;;12.53;80.06;101628.41;174517;28;1202;-66
2022/05/03 18:09:33;;;;;;;27.40;19.20;;;17.60;56.70;;;12.45;79.48;101619.97;173838;28;1029;-67
2022/05/03 18:09:40;;;;;;;27.45;19.08;;;17.60;56.70;;;12.51;80.09;101630.22;173854;28;1260;-66
2022/05/03 18:09:46;;;;;;;28.00;19.17;;;17.70;56.60;;;12.55;79.93;101630.94;173906;28;871;-66
2022/05/03 18:09:52;;;;;;;27.73;19.03;;;17.60;56.60;;;12.53;78.93;101632.78;172964;28;1326;-66
2022/05/03 18:09:57;;;;;;;28.73;19.00;;;17.60;56.50;;;12.52;79.32;101621.47;173143;28;1239;-66
2022/05/03 18:10:05;;;;;;;28.45;19.10;;;17.70;56.50;;;12.42;79.36;101627.97;173885;28;1223;-66
2022/05/03 18:10:11;;;;;;;28.53;19.63;;;17.70;56.40;;;12.31;79.83;101623.97;174565;28;1448;-66
2022/05/03 18:10:18;;;;;;;28.63;19.50;;;17.70;56.40;;;12.25;80.22;101625.97;174600;28;1196;-67
2022/05/03 18:10:24;;;;;;;28.47;19.93;;;17.70;56.40;;;12.20;80.67;101627.00;174578;28;1148;-66
2022/05/03 18:10:30;;;;;;;27.87;19.97;;;17.70;56.30;;;12.20;80.70;101623.53;174597;28;1037;-67
2022/05/03 18:10:37;;;;;;;27.33;19.95;;;17.70;56.30;;;12.24;81.08;101632.97;173910;28;1477;-67
2022/05/03 18:10:43;;;;;;;27.02;19.62;;;17.70;56.20;;;12.26;80.24;101623.31;173915;28;1029;-66
2022/05/03 18:10:48;;;;;;;27.30;19.63;;;17.70;56.20;;;12.25;79.92;101629.44;173834;28;915;-67
2022/05/03 18:10:56;;;;;;;26.05;19.52;;;17.70;56.20;;;12.30;81.05;101631.88;173878;28;1128;-66
2022/05/03 18:11:02;;;;;;;25.90;19.52;;;17.80;56.10;;;12.36;80.03;101624.66;173898;28;995;-66
2022/05/03 18:11:10;;;;;;;26.10;19.40;;;17.70;56.10;;;12.42;79.94;101625.34;174437;28;1089;-67
2022/05/03 18:11:18;;;;;;;26.15;19.68;;;17.80;56.00;;;12.48;79.79;101625.09;174466;28;1250;-66
2022/05/03 18:11:23;;;;;;;26.70;19.61;;;17.80;56.00;;;12.51;79.64;101627.63;174610;28;1063;-66
2022/05/03 18:11:29;;;;;;;27.07;19.70;;;17.80;55.90;;;12.51;79.82;101635.47;175008;28;1034;-67
2022/05/03 18:11:35;;;;;;;26.88;19.65;;;17.80;55.90;;;12.48;79.29;101630.34;175306;28;1254;-66
2022/05/03 18:11:41;;;;;;;26.63;19.58;;;17.80;55.90;;;12.40;79.18;101627.16;175334;28;937;-66
2022/05/03 18:11:46;;;;;;;26.07;19.53;;;17.80;55.80;;;12.30;79.64;101624.91;175194;28;854;-65
2022/05/03 18:11:53;;;;;;;29.38;19.52;;;17.80;55.80;;;12.21;79.46;101623.47;175293;28;957;-66
2022/05/03 18:12:00;;;;;;;31.10;19.56;;;17.80;55.80;;;12.17;80.86;101626.25;175287;28;923;-65
2022/05/03 18:12:11;;;;;;;31.18;19.78;;;17.90;55.70;;;12.14;80.12;101627.22;174540;28;1174;-66
2022/05/03 18:12:16;;;;;;;32.83;19.93;;;17.90;55.60;;;12.13;80.32;101624.66;173932;28;902;-66
2022/05/03 18:12:22;;;;;;;29.42;19.92;;;17.90;55.60;;;12.18;80.40;101627.97;173910;28;851;-66
2022/05/03 18:12:28;;;;;;;27.40;19.85;;;17.90;55.50;;;12.18;80.28;101627.97;173897;28;931;-66
2022/05/03 18:12:34;;;;;;;26.92;19.70;;;17.80;55.50;;;12.16;80.13;101630.66;173875;28;994;-66
2022/05/03 18:12:40;;;;;;;26.60;19.73;;;17.90;55.40;;;12.22;80.04;101633.03;173949;28;1018;-66
2022/05/03 18:12:46;;;;;;;26.00;19.77;;;17.90;55.40;;;12.29;79.94;101633.66;173900;28;884;-66
2022/05/03 18:12:53;;;;;;;26.17;19.67;;;17.90;55.30;;;12.34;80.32;101629.09;173886;28;954;-66
2022/05/03 18:12:59;;;;;;;26.35;19.65;;;17.90;55.30;;;12.31;80.25;101626.59;173894;28;1009;-66
2022/05/03 18:13:04;;;;;;;26.63;19.77;;;17.90;55.30;;;12.33;79.70;101627.41;173914;28;983;-66
2022/05/03 18:13:11;;;;;;;26.48;19.55;;;17.90;55.30;;;12.34;80.04;101630.84;173940;28;858;-66
2022/05/03 18:13:17;;;;;;;25.80;19.33;;;17.90;55.20;;;12.30;79.94;101624.91;174609;28;965;-64
2022/05/03 18:13:22;;;;;;;25.73;19.45;;;18.00;55.20;;;12.22;79.58;101624.34;173814;28;997;-66
2022/05/03 18:13:30;;;;;;;26.03;19.50;;;17.90;55.20;;;12.17;79.91;101626.25;173905;28;1226;-66
2022/05/03 18:13:36;;;;;;;26.37;19.50;;;18.00;55.20;;;12.21;80.11;101628.69;173115;28;1528;-66
2022/05/03 18:13:42;;;;;;;26.60;19.33;;;17.90;55.10;;;12.20;80.69;101626.13;173149;28;1069;-67
2022/05/03 18:13:48;;;;;;;27.27;19.38;;;18.00;55.10;;;12.19;80.51;101625.31;173173;28;1081;-67
2022/05/03 18:13:54;;;;;;;27.42;19.20;;;18.00;55.00;;;12.22;80.56;101624.34;173159;28;954;-67
2022/05/03 18:14:00;;;;;;;27.58;19.15;;;17.90;55.00;;;12.29;80.04;101631.06;173212;28;1322;-68
2022/05/03 18:14:05;;;;;;;27.48;19.25;;;18.00;55.00;;;12.36;79.99;101626.44;173675;28;1053;-67
2022/05/03 18:14:11;;;;;;;27.60;19.53;;;18.00;55.00;;;12.41;79.86;101626.25;173939;28;1100;-67
2022/05/03 18:14:18;;;;;;;26.95;19.27;;;18.00;55.00;;;12.42;79.80;101631.41;173859;28;938;-67
2022/05/03 18:14:23;;;;;;;25.90;19.06;;;18.00;54.90;;;12.48;79.30;101630.34;173870;28;978;-67
2022/05/03 18:14:29;;;;;;;25.23;18.97;;;18.00;54.90;;;12.49;79.52;101630.28;173896;28;863;-67
2022/05/03 18:14:35;;;;;;;25.15;18.73;;;18.00;54.90;;;12.53;79.06;101632.78;174568;28;1017;-67
2022/05/03 18:14:42;;;;;;;25.67;18.70;;;18.00;54.80;;;12.52;79.50;101631.94;174512;28;842;-68
2022/05/03 18:14:47;;;;;;;25.98;18.96;;;18.00;54.80;;;12.38;78.95;101634.22;174555;28;1058;-64
2022/05/03 18:14:57;;;;;;;28.07;19.33;;;18.00;54.80;;;12.30;78.97;101627.50;174605;28;909;-63
2022/05/03 18:15:03;;;;;;;30.23;19.97;;;18.00;54.80;;;12.13;79.89;101628.13;174614;28;898;-65
2022/05/03 18:15:11;;;;;;;30.20;19.95;;;18.00;54.70;;;12.03;79.39;101629.34;174633;28;913;-66
2022/05/03 18:15:16;;;;;;;30.47;19.90;;;18.00;54.60;;;11.98;80.22;101632.97;174523;28;1358;-65
2022/05/03 18:15:22;;;;;;;28.97;19.67;;;18.10;54.50;;;11.98;79.86;101626.91;175123;28;850;-65
2022/05/03 18:15:28;;;;;;;28.10;19.58;;;18.10;54.40;;;11.97;80.48;101633.88;174587;28;851;-66
2022/05/03 18:15:34;;;;;;;28.08;19.38;;;18.10;54.40;;;11.97;80.28;101628.66;175201;28;1207;-66
2022/05/03 18:15:43;;;;;;;29.85;19.35;;;18.10;54.40;;;12.00;80.29;101627.69;175368;28;926;-67
2022/05/03 18:15:49;;;;;;;30.27;19.60;;;18.00;54.30;;;11.98;80.47;101629.53;175105;28;1919;-66